Time;durP1;ratioP1;P1;durP2;ratioP2;P2;SDS_P1;SDS_P2;PMS_P1;PMS_P2;Temp;Humidity;BMP_temperature;BMP_pressure;BME280_temperature;BME280_humidity;BME280_pressure;Samples;Min_cycle;Max_cycle;Signal;HPM_P1;HPM_P2
2022/06/26 00:01:00;;;;;;;;;;;;;;;23.68;56.88;101250.50;4894829;29;19923;-80
2022/06/26 00:03:25;;;;;;;;;;;;;;;23.69;56.50;101254.84;4862214;29;19988;-80
2022/06/26 00:05:51;;;;;;;;;;;;;;;23.69;56.89;101258.34;4861998;29;19916;-80
2022/06/26 00:08:16;;;;;;;;;;;;;;;23.69;56.38;101252.22;4877701;29;19919;-80
2022/06/26 00:10:41;;;;;;;;;;;;;;;23.68;56.70;101246.09;4893784;29;19964;-80
2022/06/26 00:13:06;;;;;;;;;;;;;;;23.69;56.90;101249.59;4875626;29;19922;-80
2022/06/26 00:15:32;;;;;;;;;;;;;;;23.70;56.59;101248.69;4857060;29;19922;-80
2022/06/26 00:17:57;;;;;;;;;;;;;;;23.69;56.43;101249.59;4871742;29;19919;-80
2022/06/26 00:20:22;;;;;;;;;;;;;;;23.69;56.29;101249.59;4871646;29;19919;-79
2022/06/26 00:22:47;;;;;;;;;;;;;;;23.69;56.50;101247.84;4870595;29;20279;-79
2022/06/26 00:25:13;;;;;;;;;;;;;;;23.70;56.33;101248.69;4870832;29;19911;-79
2022/06/26 00:27:40;;;;;;;;;;;;;;;23.69;56.21;101246.97;4870731;29;20431;-79
2022/06/26 00:30:05;;;;;;;;;;;;;;;23.69;56.39;101253.09;4870083;29;19918;-79
2022/06/26 00:32:31;;;;;;;;;;;;;;;23.69;56.29;101250.47;4854673;29;20006;-79
2022/06/26 00:34:56;;;;;;;;;;;;;;;23.70;56.45;101261.84;4869456;29;20333;-79
2022/06/26 00:37:21;;;;;;;;;;;;;;;23.69;56.38;101258.34;4859318;29;19915;-79
2022/06/26 00:39:46;;;;;;;;;;;;;;;23.70;56.04;101269.72;4862645;29;19916;-80
2022/06/26 00:42:12;;;;;;;;;;;;;;;23.71;56.01;101279.31;4861867;29;19920;-79
2022/06/26 00:44:37;;;;;;;;;;;;;;;23.70;56.11;101278.47;4877342;29;20256;-79
2022/06/26 00:47:03;;;;;;;;;;;;;;;23.71;56.23;101279.31;4873887;29;19924;-79
2022/06/26 00:49:28;;;;;;;;;;;;;;;23.71;56.47;101277.53;4859117;29;19948;-79
2022/06/26 00:51:55;;;;;;;;;;;;;;;23.72;55.79;101266.13;4858467;29;20341;-80
2022/06/26 00:54:20;;;;;;;;;;;;;;;23.71;56.00;101267.03;4874421;29;19912;-80
2022/06/26 00:56:46;;;;;;;;;;;;;;;23.72;55.65;101275.78;4875375;29;19918;-80
2022/06/26 00:59:12;;;;;;;;;;;;;;;23.72;55.83;101273.16;4874824;29;19980;-80
2022/06/26 01:01:38;;;;;;;;;;;;;;;23.72;55.91;101273.16;4859751;29;19926;-80
2022/06/26 01:04:03;;;;;;;;;;;;;;;23.72;55.96;101281.06;4875617;29;19963;-80
2022/06/26 01:06:30;;;;;;;;;;;;;;;23.72;55.94;101273.16;4873663;29;19912;-80
2022/06/26 01:08:56;;;;;;;;;;;;;;;23.73;55.47;101267.00;4857514;29;19923;-80
2022/06/26 01:11:22;;;;;;;;;;;;;;;23.73;55.59;101274.88;4873345;29;19947;-80
2022/06/26 01:13:48;;;;;;;;;;;;;;;23.73;55.62;101272.25;4856858;29;20419;-80
2022/06/26 01:16:14;;;;;;;;;;;;;;;23.73;55.67;101278.34;4873063;29;19919;-80
2022/06/26 01:18:40;;;;;;;;;;;;;;;23.74;55.61;101281.88;4875317;29;19916;-80
2022/06/26 01:21:05;;;;;;;;;;;;;;;23.75;55.76;101291.47;4858213;29;19968;-80
2022/06/26 01:23:31;;;;;;;;;;;;;;;23.75;55.79;101284.47;4872831;29;19912;-80
2022/06/26 01:25:56;;;;;;;;;;;;;;;23.74;55.70;101285.34;4876099;29;19916;-79
2022/06/26 01:28:21;;;;;;;;;;;;;;;23.74;55.72;101281.88;4859556;29;19916;-80
2022/06/26 01:30:47;;;;;;;;;;;;;;;23.73;55.71;101282.75;4853556;29;19923;-79
2022/06/26 01:33:12;;;;;;;;;;;;;;;23.73;55.65;101275.72;4852565;29;19916;-79
2022/06/26 01:35:37;;;;;;;;;;;;;;;23.74;55.43;101276.63;4867648;29;19916;-79
2022/06/26 01:38:09;;;;;;;;;;;;;;;23.75;55.21;101283.56;4865795;29;20294;-79
2022/06/26 01:40:34;;;;;;;;;;;;;;;23.75;55.58;101275.69;4865785;29;19968;-80
2022/06/26 01:42:59;;;;;;;;;;;;;;;23.75;55.54;101273.06;4865633;29;19919;-79
2022/06/26 01:45:24;;;;;;;;;;;;;;;23.74;55.31;101276.63;4865536;29;19926;-79
2022/06/26 01:47:50;;;;;;;;;;;;;;;23.75;55.32;101289.72;4853244;29;19923;-80
2022/06/26 01:50:15;;;;;;;;;;;;;;;23.75;55.08;101296.72;4868404;29;19962;-79
2022/06/26 01:52:41;;;;;;;;;;;;;;;23.74;55.40;101289.75;4869202;29;20418;-80
2022/06/26 01:55:06;;;;;;;;;;;;;;;23.74;55.16;101293.25;4855580;29;20320;-79
2022/06/26 01:57:31;;;;;;;;;;;;;;;23.73;55.06;101288.88;4856480;29;19916;-80
2022/06/26 01:59:56;;;;;;;;;;;;;;;23.75;55.17;101291.47;4857080;29;20015;-79
2022/06/26 02:02:22;;;;;;;;;;;;;;;23.74;55.18;101290.59;4871003;29;19916;-80
2022/06/26 02:04:47;;;;;;;;;;;;;;;23.74;55.08;101295.88;4868547;29;20014;-79
2022/06/26 02:07:12;;;;;;;;;;;;;;;23.75;55.04;101288.84;4866365;29;19916;-80
2022/06/26 02:15:06;;;;;;;;;;;;;;;23.74;55.04;101290.59;4866587;29;19919;-79
2022/06/26 02:17:32;;;;;;;;;;;;;;;23.74;55.08;101287.97;4849900;29;19916;-80
2022/06/26 02:19:57;;;;;;;;;;;;;;;23.75;54.78;101296.72;4848899;29;19916;-79
2022/06/26 02:22:22;;;;;;;;;;;;;;;23.74;54.97;101297.63;4848595;29;19916;-79
2022/06/26 02:24:47;;;;;;;;;;;;;;;23.75;54.71;101291.47;4856397;29;19916;-81
2022/06/26 02:27:13;;;;;;;;;;;;;;;23.74;55.03;101289.75;4850635;29;20372;-79
2022/06/26 02:29:38;;;;;;;;;;;;;;;23.74;55.01;101292.38;4849922;29;19919;-80
2022/06/26 02:32:03;;;;;;;;;;;;;;;23.74;54.57;101290.59;4864653;29;19923;-79
2022/06/26 02:34:29;;;;;;;;;;;;;;;23.74;55.01;101284.50;4865827;29;19916;-79
2022/06/26 02:36:54;;;;;;;;;;;;;;;23.73;54.98;101286.25;4864267;29;19912;-80
2022/06/26 02:39:20;;;;;;;;;;;;;;;23.72;54.58;101284.53;4863693;29;20371;-79
2022/06/26 02:41:45;;;;;;;;;;;;;;;23.71;54.90;101281.94;4848150;29;19920;-79
2022/06/26 02:44:10;;;;;;;;;;;;;;;23.72;54.80;101296.81;4847822;29;20018;-79
2022/06/26 02:46:35;;;;;;;;;;;;;;;23.70;55.00;101302.09;4847837;29;19924;-79
2022/06/26 02:49:01;;;;;;;;;;;;;;;23.72;54.75;101300.31;4847821;29;20298;-79
2022/06/26 02:51:26;;;;;;;;;;;;;;;23.71;54.97;101292.44;4850016;29;19916;-79
2022/06/26 02:53:52;;;;;;;;;;;;;;;23.69;54.72;101294.25;4859726;29;19916;-80
2022/06/26 02:56:17;;;;;;;;;;;;;;;23.69;54.90;101302.13;4875533;29;19912;-80
2022/06/26 02:58:42;;;;;;;;;;;;;;;23.67;54.67;101299.56;4851225;29;19908;-79
2022/06/26 03:01:07;;;;;;;;;;;;;;;23.68;55.11;101296.03;4852710;29;19927;-79
2022/06/26 03:03:33;;;;;;;;;;;;;;;23.67;55.13;101290.81;4876492;29;19916;-80
2022/06/26 03:05:58;;;;;;;;;;;;;;;23.67;55.15;101283.81;4874904;29;19919;-79
2022/06/26 03:08:23;;;;;;;;;;;;;;;23.68;55.09;101289.91;4851022;29;19916;-79
2022/06/26 03:10:50;;;;;;;;;;;;;;;23.66;55.25;101286.47;4865366;29;19923;-79
2022/06/26 03:13:15;;;;;;;;;;;;;;;23.66;55.17;101287.31;4849355;29;19922;-79
2022/06/26 03:15:41;;;;;;;;;;;;;;;23.65;55.03;101296.13;4850068;29;19916;-79
2022/06/26 03:18:06;;;;;;;;;;;;;;;23.65;55.32;101303.13;4865745;29;20033;-79
2022/06/26 03:20:32;;;;;;;;;;;;;;;23.64;55.30;101310.16;4849422;29;19921;-79
2022/06/26 03:22:57;;;;;;;;;;;;;;;23.65;55.13;101311.00;4863330;29;19955;-79
2022/06/26 03:25:22;;;;;;;;;;;;;;;23.63;55.35;101305.81;4864618;29;19912;-79
2022/06/26 03:27:48;;;;;;;;;;;;;;;23.63;55.46;101308.44;4848281;29;19912;-79
2022/06/26 03:30:13;;;;;;;;;;;;;;;23.61;55.42;101308.47;4848097;29;19923;-79
2022/06/26 03:32:39;;;;;;;;;;;;;;;23.62;55.40;101311.97;4847807;29;19939;-79
2022/06/26 03:35:04;;;;;;;;;;;;;;;23.62;55.49;101315.44;4862755;29;19935;-79
2022/06/26 03:37:29;;;;;;;;;;;;;;;23.62;55.02;101322.47;4862582;29;19953;-79
2022/06/26 03:39:55;;;;;;;;;;;;;;;23.61;55.39;101320.75;4847416;29;19922;-79
2022/06/26 03:42:20;;;;;;;;;;;;;;;23.62;55.47;101331.19;4847340;29;20249;-79
2022/06/26 03:44:45;;;;;;;;;;;;;;;23.63;55.05;101334.72;4863129;29;19974;-80
2022/06/26 03:47:11;;;;;;;;;;;;;;;23.62;55.14;101338.22;4850077;29;20298;-79
2022/06/26 03:49:36;;;;;;;;;;;;;;;23.61;55.12;101336.53;4865244;29;19940;-79
2022/06/26 03:52:02;;;;;;;;;;;;;;;23.60;55.53;101338.28;4865482;29;19915;-79
2022/06/26 03:54:28;;;;;;;;;;;;;;;23.60;55.13;101325.16;4865192;29;19922;-79
2022/06/26 03:56:53;;;;;;;;;;;;;;;23.60;55.15;101324.28;4850035;29;20349;-79
2022/06/26 03:59:18;;;;;;;;;;;;;;;23.61;55.10;101323.38;4865612;29;19912;-79
2022/06/26 04:01:43;;;;;;;;;;;;;;;23.60;55.26;101330.41;4867042;29;19967;-80
2022/06/26 04:04:09;;;;;;;;;;;;;;;23.60;55.05;101340.91;4853740;29;19916;-79
2022/06/26 04:06:34;;;;;;;;;;;;;;;23.61;54.93;101344.41;4869015;29;19912;-79
2022/06/26 04:08:59;;;;;;;;;;;;;;;23.64;55.18;101341.69;4868866;29;19920;-79
2022/06/26 04:11:25;;;;;;;;;;;;;;;23.64;54.75;101346.94;4853840;29;19912;-79
2022/06/26 04:13:50;;;;;;;;;;;;;;;23.66;55.07;101344.28;4869570;29;19919;-80
2022/06/26 04:16:16;;;;;;;;;;;;;;;23.65;55.11;101343.41;4870637;29;19968;-80
2022/06/26 04:18:41;;;;;;;;;;;;;;;23.67;54.80;101341.63;4870166;29;19923;-80
2022/06/26 04:21:06;;;;;;;;;;;;;;;23.67;54.79;101348.63;4869136;29;19915;-80
2022/06/26 04:23:32;;;;;;;;;;;;;;;23.68;54.79;101350.34;4856976;29;19987;-80
2022/06/26 04:25:57;;;;;;;;;;;;;;;23.68;54.66;101350.34;4863147;29;19915;-80
2022/06/26 04:28:22;;;;;;;;;;;;;;;23.68;54.83;101348.59;4864554;29;19983;-80
2022/06/26 04:30:47;;;;;;;;;;;;;;;23.69;54.85;101355.56;4874771;29;19936;-80
2022/06/26 04:33:12;;;;;;;;;;;;;;;23.70;54.76;101362.53;4856306;29;19970;-80
2022/06/26 04:35:38;;;;;;;;;;;;;;;23.70;54.49;101357.28;4854225;29;19916;-79
2022/06/26 04:38:03;;;;;;;;;;;;;;;23.71;54.81;101356.38;4869031;29;19916;-80
2022/06/26 04:40:29;;;;;;;;;;;;;;;23.86;54.50;101372.66;4853648;29;19920;-79
2022/06/26 04:42:55;;;;;;;;;;;;;;;24.06;53.75;101369.47;4868395;29;19912;-79
2022/06/26 04:45:21;;;;;;;;;;;;;;;24.31;53.03;101373.13;4867902;29;19932;-79
2022/06/26 04:47:46;;;;;;;;;;;;;;;24.52;52.59;101382.19;4867531;29;19912;-79
2022/06/26 04:50:11;;;;;;;;;;;;;;;24.60;52.59;101388.06;4867668;29;19916;-79
2022/06/26 04:52:37;;;;;;;;;;;;;;;24.80;51.70;101386.59;4852248;29;19915;-79
2022/06/26 04:55:02;;;;;;;;;;;;;;;24.91;51.32;101392.41;4867389;29;19916;-79
2022/06/26 04:57:28;;;;;;;;;;;;;;;25.00;49.55;101388.63;4852254;29;20286;-79
2022/06/26 04:59:53;;;;;;;;;;;;;;;25.07;49.45;101387.50;4867754;29;20285;-79
2022/06/26 05:02:19;;;;;;;;;;;;;;;25.18;48.84;101395.06;4852497;29;19915;-79
2022/06/26 05:04:44;;;;;;;;;;;;;;;25.19;48.74;101392.38;4867903;29;20358;-79
2022/06/26 05:07:09;;;;;;;;;;;;;;;25.23;49.06;101395.78;4867312;29;19927;-79
2022/06/26 05:09:35;;;;;;;;;;;;;;;25.33;49.71;101391.09;4852167;29;19923;-79
2022/06/26 05:12:00;;;;;;;;;;;;;;;25.41;49.99;101399.56;4852290;29;20430;-79
2022/06/26 05:14:25;;;;;;;;;;;;;;;25.47;49.22;101409.91;4851069;29;19979;-79
2022/06/26 05:16:51;;;;;;;;;;;;;;;25.54;49.52;101405.28;4867595;29;19916;-79
2022/06/26 05:32:54;;;;;;;;;;;;;;;25.06;47.98;101404.19;5182631;23;19922;-79
2022/06/26 05:40:30;;;;;;;;;;;;;;;24.50;49.06;101414.69;5925644;23;19930;-78
2022/06/26 05:48:16;;;;;;;;;;;;;;;24.25;49.86;101425.06;4899916;29;19930;-84
2022/06/26 05:50:48;;;;;;;;;;;;;;;24.22;49.58;101420.75;4901738;29;19979;-85
2022/06/26 05:53:16;;;;;;;;;;;;;;;24.18;49.82;101425.22;4902024;29;19936;-85
2022/06/26 05:55:57;;;;;;;;;;;;;;;24.17;49.90;101427.88;4895105;29;19916;-84
2022/06/26 05:58:27;;;;;;;;;;;;;;;24.15;49.60;101427.94;4902203;29;19911;-83
2022/06/26 06:00:58;;;;;;;;;;;;;;;24.14;49.76;101425.34;4899269;29;19900;-81
2022/06/26 06:03:40;;;;;;;;;;;;;;;24.10;49.70;101434.22;4900910;29;19940;-86
2022/06/26 06:06:10;;;;;;;;;;;;;;;24.07;50.17;101437.81;4902052;29;19974;-85
2022/06/26 06:08:38;;;;;;;;;;;;;;;24.05;49.99;101449.28;4898996;29;19916;-83
2022/06/26 06:11:09;;;;;;;;;;;;;;;24.04;50.12;101451.03;4902441;29;19911;-85
2022/06/26 06:13:36;;;;;;;;;;;;;;;24.01;49.89;101453.75;4886207;29;19934;-84
2022/06/26 06:19:07;;;;;;;;;;;;;;;24.01;50.33;101462.47;4902511;29;19911;-84
2022/06/26 06:21:36;;;;;;;;;;;;;;;24.00;49.75;101460.78;4885737;29;19919;-85
2022/06/26 06:24:14;;;;;;;;;;;;;;;23.99;50.00;101463.44;4901015;29;19931;-84
2022/06/26 06:26:47;;;;;;;;;;;;;;;23.96;49.99;101463.53;4884653;29;19911;-83
2022/06/26 06:29:17;;;;;;;;;;;;;;;23.95;49.86;101462.66;4870845;29;19937;-84
2022/06/26 06:32:11;;;;;;;;;;;;;;;23.95;49.98;101467.94;4845801;29;19960;-84
2022/06/26 06:34:44;;;;;;;;;;;;;;;23.99;49.75;101472.16;4844989;29;19913;-85
2022/06/26 06:43:09;;;;;;;;;;;;;;;24.05;49.49;101480.81;4845072;29;19998;-84
2022/06/26 06:48:41;;;;;;;;;;;;;;;24.05;49.75;101502.72;4845932;29;19924;-85
2022/06/26 06:54:19;;;;;;;;;;;;;;;24.12;49.82;101519.19;4846845;29;19942;-83
2022/06/26 06:56:54;;;;;;;;;;;;;;;24.11;49.85;101517.47;4830778;29;19947;-82
2022/06/26 07:02:32;;;;;;;;;;;;;;;24.20;50.16;101544.38;4861652;29;19927;-80
2022/06/26 07:05:24;;;;;;;;;;;;;;;;;;;;;
2022/06/26 07:07:49;;;;;;;;;;;;;;;24.18;54.41;101537.44;4875908;29;20394;-80
2022/06/26 07:36:16;;;;;;;;;;;;;;;22.80;56.29;101570.31;5597836;23;19923;-84
2022/06/26 07:38:43;;;;;;;;;;;;;;;22.80;56.54;101576.41;4888191;29;19920;-84
2022/06/26 07:41:33;;;;;;;;;;;;;;;22.77;57.13;101573.84;4903456;29;20338;-83
2022/06/26 07:59:58;;;;;;;;;;;;;;;22.93;54.32;101582.28;5180527;23;19927;-85
2022/06/26 08:02:24;;;;;;;;;;;;;;;23.02;54.64;101576.03;4887952;29;19923;-86
2022/06/26 08:05:01;;;;;;;;;;;;;;;23.10;55.61;101574.09;4901933;29;19911;-85
2022/06/26 08:10:42;;;;;;;;;;;;;;;23.19;55.73;101588.78;4905385;29;19919;-85
2022/06/26 08:13:10;;;;;;;;;;;;;;;23.25;55.61;101588.66;4887348;29;19938;-86
2022/06/26 08:15:37;;;;;;;;;;;;;;;23.21;56.15;101592.22;4895306;29;19918;-85
2022/06/26 08:18:07;;;;;;;;;;;;;;;23.25;55.81;101593.91;4902619;29;19911;-82
2022/06/26 08:20:34;;;;;;;;;;;;;;;23.22;58.18;101593.97;4901877;29;20056;-80
2022/06/26 08:23:21;;;;;;;;;;;;;;;23.22;55.29;101599.22;4903333;29;19912;-83
2022/06/26 08:25:48;;;;;;;;;;;;;;;23.17;56.09;101599.34;4899273;29;19978;-81
2022/06/26 08:28:16;;;;;;;;;;;;;;;23.07;53.20;101603.03;4897310;29;19912;-81
2022/06/26 08:30:42;;;;;;;;;;;;;;;23.10;53.82;101600.34;4881116;29;19915;-80
2022/06/26 08:33:07;;;;;;;;;;;;;;;23.18;56.70;101605.44;4886942;29;19923;-84
2022/06/26 08:35:59;;;;;;;;;;;;;;;23.29;55.71;101602.59;4888563;29;19916;-84
2022/06/26 08:38:33;;;;;;;;;;;;;;;23.26;53.60;101607.91;4887737;29;19920;-85
2022/06/26 08:44:05;;;;;;;;;;;;;;;23.19;54.27;101600.16;4904634;29;19946;-85
2022/06/26 08:49:52;;;;;;;;;;;;;;;23.05;52.93;101599.56;4904015;29;19954;-84
2022/06/26 08:52:28;;;;;;;;;;;;;;;23.02;51.86;101597.03;4885852;29;19895;-83
2022/06/26 08:55:12;;;;;;;;;;;;;;;23.16;52.88;101596.72;4902620;29;19912;-83
2022/06/26 08:57:50;;;;;;;;;;;;;;;23.13;54.97;101599.44;4896063;29;19918;-82
2022/06/26 09:00:21;;;;;;;;;;;;;;;23.07;50.59;101594.31;4897073;29;19920;-83
2022/06/26 09:05:50;;;;;;;;;;;;;;;22.99;51.15;101599.66;4904128;29;19980;-84
2022/06/26 09:08:20;;;;;;;;;;;;;;;22.95;52.21;101598.00;4887811;29;19912;-85
2022/06/26 09:10:47;;;;;;;;;;;;;;;22.85;50.99;101597.31;4887728;29;19916;-84
2022/06/26 09:13:14;;;;;;;;;;;;;;;22.89;51.47;101603.38;4901995;29;19916;-84
2022/06/26 09:15:50;;;;;;;;;;;;;;;22.92;49.90;101608.56;4886891;29;19912;-85
2022/06/26 09:18:21;;;;;;;;;;;;;;;22.95;51.66;101605.88;4887150;29;19923;-84
2022/06/26 09:21:11;;;;;;;;;;;;;;;22.96;49.95;101612.84;4871275;29;19916;-85
2022/06/26 09:23:37;;;;;;;;;;;;;;;22.97;51.12;101611.94;4885458;29;19994;-84
2022/06/26 09:26:12;;;;;;;;;;;;;;;23.11;51.17;101614.34;4887402;29;19950;-84
2022/06/26 09:32:09;;;;;;;;;;;;;;;23.05;51.51;101607.44;4903570;29;19935;-84
2022/06/26 09:45:41;;;;;;;;;;;;;;;23.02;52.21;101615.41;5197029;23;19924;-81
2022/06/26 09:48:08;;;;;;;;;;;;;;;23.09;58.60;101616.13;4882806;29;19979;-78
2022/06/26 09:50:33;;;;;;;;;;;;;;;23.06;58.64;101624.94;4872823;29;19915;-78
2022/06/26 09:52:59;;;;;;;;;;;;;;;22.83;54.87;101625.34;4871228;29;20435;-79
2022/06/26 09:55:24;;;;;;;;;;;;;;;22.66;57.33;101627.44;4885379;29;19922;-78
2022/06/26 09:57:50;;;;;;;;;;;;;;;22.54;53.90;101618.03;4853146;29;19922;-78
2022/06/26 10:00:16;;;;;;;;;;;;;;;22.46;56.31;101617.31;4867260;29;19916;-78
2022/06/26 10:08:13;;;;;;;;;;;;;;;22.38;55.79;101626.19;4869669;29;19923;-78
2022/06/26 10:10:41;;;;;;;;;;;;;;;22.42;57.77;101628.72;4867337;29;19916;-79
2022/06/26 10:13:06;;;;;;;;;;;;;;;22.38;56.60;101628.78;4868711;29;20011;-79
2022/06/26 10:15:35;;;;;;;;;;;;;;;22.43;57.24;101627.81;4868271;29;19939;-80
2022/06/26 10:18:16;;;;;;;;;;;;;;;22.45;58.70;101629.56;4867768;29;20001;-78
2022/06/26 10:20:42;;;;;;;;;;;;;;;22.56;60.89;101630.22;4869279;29;19979;-80
2022/06/26 10:23:08;;;;;;;;;;;;;;;22.49;59.77;101631.19;4868911;29;20414;-78
2022/06/26 10:25:33;;;;;;;;;;;;;;;22.48;60.90;101624.25;4867511;29;19987;-79
2022/06/26 10:28:00;;;;;;;;;;;;;;;22.43;60.01;101625.19;4867625;29;20285;-79
2022/06/26 10:30:27;;;;;;;;;;;;;;;22.45;61.13;101616.44;4867526;29;19912;-79
2022/06/26 10:33:16;;;;;;;;;;;;;;;22.46;61.21;101627.78;4867562;29;19908;-79
2022/06/26 10:35:43;;;;;;;;;;;;;;;22.47;60.90;101626.88;4874980;29;19911;-79
2022/06/26 10:38:22;;;;;;;;;;;;;;;22.50;62.57;101624.22;4879901;29;19916;-79
2022/06/26 10:43:52;;;;;;;;;;;;;;;22.45;61.50;101628.66;4887786;29;19918;-80
2022/06/26 10:46:20;;;;;;;;;;;;;;;22.46;60.70;101622.53;4880639;29;19927;-80
2022/06/26 10:48:49;;;;;;;;;;;;;;;22.48;60.68;101624.25;4880253;29;19912;-80
2022/06/26 10:51:22;;;;;;;;;;;;;;;22.51;61.47;101631.19;4872281;29;19959;-80
2022/06/26 10:53:47;;;;;;;;;;;;;;;22.51;61.43;101625.94;4871142;29;19918;-80
2022/06/26 10:56:13;;;;;;;;;;;;;;;22.49;58.12;101630.34;4855648;29;19975;-79
2022/06/26 10:58:41;;;;;;;;;;;;;;;22.39;60.43;101634.91;4872488;29;19968;-82
2022/06/26 11:01:08;;;;;;;;;;;;;;;22.38;61.28;101639.28;4870751;29;19955;-79
2022/06/26 11:03:34;;;;;;;;;;;;;;;22.41;61.11;101638.38;4889588;29;19915;-80
2022/06/26 11:05:59;;;;;;;;;;;;;;;22.35;62.10;101639.31;4873774;29;19911;-80
2022/06/26 11:08:32;;;;;;;;;;;;;;;22.37;64.03;101639.31;4889298;29;19912;-77
2022/06/26 11:10:58;;;;;;;;;;;;;;;22.43;60.34;101633.06;4889496;29;19912;-78
2022/06/26 11:13:23;;;;;;;;;;;;;;;22.53;61.56;101639.91;4877423;29;19923;-79
2022/06/26 11:15:49;;;;;;;;;;;;;;;22.60;60.05;101641.50;4874592;29;19911;-79
2022/06/26 11:18:15;;;;;;;;;;;;;;;22.63;61.04;101644.09;4855731;29;19916;-79
2022/06/26 11:20:49;;;;;;;;;;;;;;;22.60;61.15;101644.13;4855824;29;20323;-79
2022/06/26 11:23:28;;;;;;;;;;;;;;;22.61;60.23;101643.25;4870866;29;19911;-79
2022/06/26 11:25:55;;;;;;;;;;;;;;;22.56;61.18;101635.47;4870492;29;19915;-78
2022/06/26 11:28:25;;;;;;;;;;;;;;;22.53;62.03;101645.13;4870204;29;19919;-79
2022/06/26 11:30:51;;;;;;;;;;;;;;;22.54;61.25;101639.88;4869786;29;19965;-79
2022/06/26 11:33:22;;;;;;;;;;;;;;;22.56;62.84;101639.84;4869276;29;19912;-79
2022/06/26 11:35:48;;;;;;;;;;;;;;;22.56;61.91;101640.72;4885111;29;19912;-78
2022/06/26 11:38:14;;;;;;;;;;;;;;;22.56;58.46;101643.34;4868316;29;19993;-79
2022/06/26 11:40:40;;;;;;;;;;;;;;;22.57;61.76;101637.19;4868881;29;19946;-79
2022/06/26 11:43:06;;;;;;;;;;;;;;;22.54;60.09;101631.16;4869362;29;19912;-79
2022/06/26 11:45:32;;;;;;;;;;;;;;;22.58;60.86;101635.41;4852662;29;20284;-78
2022/06/26 11:47:58;;;;;;;;;;;;;;;22.52;61.83;101631.16;4876372;29;19912;-80
2022/06/26 11:50:29;;;;;;;;;;;;;;;22.52;61.38;101639.03;4852414;29;19951;-79
2022/06/26 11:52:55;;;;;;;;;;;;;;;22.49;58.73;101635.59;4871232;29;19954;-81
2022/06/26 11:55:21;;;;;;;;;;;;;;;22.50;61.33;101626.84;4872482;29;19912;-80
2022/06/26 11:57:46;;;;;;;;;;;;;;;22.53;61.65;101629.41;4871828;29;19963;-80
2022/06/26 12:00:12;;;;;;;;;;;;;;;22.46;61.77;101630.41;4866184;29;19959;-79
2022/06/26 12:02:44;;;;;;;;;;;;;;;22.61;60.60;101634.53;4865645;29;20394;-79
2022/06/26 12:05:09;;;;;;;;;;;;;;;22.66;58.92;101628.28;4872889;29;19922;-79
2022/06/26 12:07:46;;;;;;;;;;;;;;;22.73;61.13;101627.31;4880361;29;20286;-80
2022/06/26 12:10:11;;;;;;;;;;;;;;;22.73;61.83;101624.69;4878902;29;19918;-79
2022/06/26 12:12:47;;;;;;;;;;;;;;;22.72;62.59;101630.81;4871486;29;20015;-79
2022/06/26 12:15:14;;;;;;;;;;;;;;;22.74;63.18;101626.41;4868912;29;19999;-79
2022/06/26 12:17:40;;;;;;;;;;;;;;;22.79;62.19;101632.41;4868214;29;19943;-79
2022/06/26 12:20:07;;;;;;;;;;;;;;;22.80;62.54;101626.28;4865872;29;19916;-79
2022/06/26 12:22:33;;;;;;;;;;;;;;;22.82;62.78;101634.13;4865511;29;19920;-79
2022/06/26 12:24:59;;;;;;;;;;;;;;;22.83;62.41;101637.63;4865562;29;19920;-79
2022/06/26 12:27:33;;;;;;;;;;;;;;;22.83;63.30;101638.47;4865528;29;19918;-78
2022/06/26 12:29:59;;;;;;;;;;;;;;;22.81;63.69;101637.63;4864559;29;20007;-78
2022/06/26 12:32:24;;;;;;;;;;;;;;;22.79;63.67;101637.66;4864607;29;19947;-79
2022/06/26 12:34:49;;;;;;;;;;;;;;;22.82;63.66;101636.75;4864835;29;20383;-79
2022/06/26 12:37:15;;;;;;;;;;;;;;;22.83;63.98;101641.09;4849288;29;19968;-79
2022/06/26 12:39:40;;;;;;;;;;;;;;;22.74;64.93;101638.66;4865299;29;20252;-79
2022/06/26 12:42:05;;;;;;;;;;;;;;;22.75;64.59;101638.59;4850705;29;19920;-79
2022/06/26 12:44:31;;;;;;;;;;;;;;;22.78;64.18;101635.09;4865399;29;19932;-79
2022/06/26 12:46:56;;;;;;;;;;;;;;;22.82;64.46;101641.13;4870665;29;19915;-79
2022/06/26 12:49:21;;;;;;;;;;;;;;;22.87;63.30;101636.66;4885900;29;19974;-79
2022/06/26 12:51:47;;;;;;;;;;;;;;;22.84;63.68;101637.56;4854426;29;19916;-79
2022/06/26 12:54:12;;;;;;;;;;;;;;;22.84;64.54;101640.19;4870701;29;20328;-80
2022/06/26 12:56:37;;;;;;;;;;;;;;;22.86;63.04;101638.41;4855297;29;19916;-79
2022/06/26 12:59:02;;;;;;;;;;;;;;;22.90;63.01;101649.72;4870538;29;19915;-80
2022/06/26 13:01:27;;;;;;;;;;;;;;;22.89;63.57;101648.88;4854794;29;19963;-81
2022/06/26 13:03:53;;;;;;;;;;;;;;;22.89;64.10;101651.47;4856057;29;19915;-80
2022/06/26 13:06:18;;;;;;;;;;;;;;;22.87;63.64;101652.41;4856585;29;19915;-80
2022/06/26 13:08:44;;;;;;;;;;;;;;;22.77;65.40;101651.69;4872356;29;19923;-80
2022/06/26 13:11:25;;;;;;;;;;;;;;;22.78;64.47;101642.97;4874774;29;19920;-80
2022/06/26 13:13:52;;;;;;;;;;;;;;;22.75;64.77;101643.84;4893116;29;19918;-80
2022/06/26 13:16:18;;;;;;;;;;;;;;;22.77;64.71;101636.81;4865843;29;19919;-81
2022/06/26 13:18:46;;;;;;;;;;;;;;;22.77;64.84;101642.06;4894208;29;19911;-79
2022/06/26 13:21:12;;;;;;;;;;;;;;;22.79;63.20;101642.91;4869910;29;19920;-80
2022/06/26 13:23:37;;;;;;;;;;;;;;;22.84;63.77;101639.34;4871323;29;20430;-80
2022/06/26 13:26:02;;;;;;;;;;;;;;;22.79;63.51;101640.28;4854310;29;19923;-79
2022/06/26 13:28:28;;;;;;;;;;;;;;;22.79;63.42;101647.28;4853108;29;20266;-80
2022/06/26 13:30:53;;;;;;;;;;;;;;;22.76;64.41;101642.97;4870144;29;19919;-79
2022/06/26 13:33:18;;;;;;;;;;;;;;;22.82;63.74;101654.25;4854133;29;19920;-80
2022/06/26 13:36:02;;;;;;;;;;;;;;;22.82;62.00;101652.50;4876399;29;19912;-81
2022/06/26 13:38:28;;;;;;;;;;;;;;;22.87;60.84;101648.03;4878448;29;19896;-79
2022/06/26 13:40:53;;;;;;;;;;;;;;;22.96;57.50;101650.47;4867000;29;20010;-78
2022/06/26 13:43:19;;;;;;;;;;;;;;;23.02;59.45;101653.88;4896963;29;19922;-81
2022/06/26 13:46:08;;;;;;;;;;;;;;;23.05;58.14;101659.09;4874327;29;19920;-81
2022/06/26 13:52:10;;;;;;;;;;;;;;;23.00;60.89;101648.69;4902144;29;19918;-82
2022/06/26 13:55:14;;;;;;;;;;;;;;;23.05;58.20;101653.84;4846180;29;19920;-81
2022/06/26 13:58:01;;;;;;;;;;;;;;;23.07;59.26;101649.44;4824946;29;19913;-80
2022/06/26 14:06:09;;;;;;;;;;;;;;;22.99;50.83;101642.56;4965661;23;19908;-84
2022/06/26 14:08:56;;;;;;;;;;;;;;;23.04;49.36;101644.22;4885347;29;19955;-83
2022/06/26 14:14:47;;;;;;;;;;;;;;;23.05;52.06;101636.31;4902756;29;19918;-84
2022/06/26 14:17:39;;;;;;;;;;;;;;;23.19;52.52;101638.66;4902294;29;19896;-84
2022/06/26 14:20:06;;;;;;;;;;;;;;;23.26;52.29;101635.03;4870414;29;19911;-84
2022/06/26 14:25:57;;;;;;;;;;;;;;;23.26;53.38;101644.69;4902706;29;19919;-84
2022/06/26 14:28:26;;;;;;;;;;;;;;;23.29;52.20;101644.59;4886670;29;19911;-83
2022/06/26 14:34:22;;;;;;;;;;;;;;;23.27;52.50;101649.03;4902073;29;19979;-84
2022/06/26 14:36:49;;;;;;;;;;;;;;;23.20;46.84;101646.53;4870304;29;19927;-84
2022/06/26 14:42:20;;;;;;;;;;;;;;;23.33;51.48;101654.16;4902380;29;19922;-83
2022/06/26 14:45:07;;;;;;;;;;;;;;;23.37;51.27;101661.09;4902170;29;19949;-84
2022/06/26 14:47:41;;;;;;;;;;;;;;;23.34;50.67;101663.75;4886217;29;19912;-84
2022/06/26 14:50:28;;;;;;;;;;;;;;;23.40;51.32;101661.84;4885707;29;19931;-84
2022/06/26 14:53:03;;;;;;;;;;;;;;;23.40;50.78;101659.22;4900561;29;19896;-84
2022/06/26 14:58:11;;;;;;;;;;;;;;;23.38;49.30;101650.53;5405343;23;19907;-85
2022/06/26 15:00:55;;;;;;;;;;;;;;;23.43;50.87;101650.44;4886167;29;19955;-84
2022/06/26 15:03:22;;;;;;;;;;;;;;;23.48;50.66;101648.56;4884882;29;19912;-84
2022/06/26 15:05:58;;;;;;;;;;;;;;;23.48;50.63;101651.22;4870263;29;20011;-84
2022/06/26 15:08:25;;;;;;;;;;;;;;;23.44;49.55;101653.94;4884467;29;19916;-81
2022/06/26 15:10:52;;;;;;;;;;;;;;;23.40;49.96;101659.22;4878464;29;20002;-81
2022/06/26 15:13:21;;;;;;;;;;;;;;;23.45;50.58;101651.25;4878953;29;19916;-81